createdAt,value
2018-03-28T00:00:11.445Z,99424.27
2018-03-28T00:02:39.164Z,99418.30
2018-03-28T00:05:06.980Z,99423.77
2018-03-28T00:07:34.738Z,99413.74
2018-03-28T00:10:02.604Z,99420.41
2018-03-28T00:12:30.242Z,99418.61
2018-03-28T00:14:57.919Z,99423.09
2018-03-28T00:17:25.663Z,99419.23
2018-03-28T00:19:53.398Z,99416.61
2018-03-28T00:22:21.219Z,99413.97
2018-03-28T00:24:49.188Z,99416.81
2018-03-28T00:27:17.055Z,99418.36
2018-03-28T00:29:44.820Z,99419.02
2018-03-28T00:32:12.584Z,99416.44
2018-03-28T00:34:40.349Z,99415.77
2018-03-28T00:37:08.215Z,99412.31
2018-03-28T00:39:36.083Z,99408.98
2018-03-28T00:42:03.921Z,99408.02
2018-03-28T00:44:31.714Z,99407.09
2018-03-28T00:46:59.426Z,99403.24
2018-03-28T00:49:27.140Z,99405.25
2018-03-28T00:51:54.868Z,99400.91
2018-03-28T00:54:22.675Z,99400.74
2018-03-28T00:56:50.394Z,99407.06
2018-03-28T00:59:18.162Z,99405.66
2018-03-28T01:01:45.902Z,99405.08
2018-03-28T01:04:13.727Z,99408.14
2018-03-28T01:06:41.490Z,99401.52
2018-03-28T01:09:09.367Z,99398.86
2018-03-28T01:11:37.126Z,99400.81
2018-03-28T01:14:04.935Z,99395.12
2018-03-28T01:16:32.707Z,99398.15
2018-03-28T01:19:00.521Z,99381.27
2018-03-28T01:21:28.287Z,99377.08
2018-03-28T01:23:56.251Z,99375.84
2018-03-28T01:26:24.019Z,99382.69
2018-03-28T01:28:51.832Z,99375.48
2018-03-28T01:31:19.652Z,99372.38
2018-03-28T01:33:47.516Z,99371.70
2018-03-28T01:36:15.231Z,99368.44
2018-03-28T01:38:43.045Z,99374.00
2018-03-28T01:41:10.698Z,99369.59
2018-03-28T01:43:38.429Z,99372.32
2018-03-28T01:46:06.235Z,99362.83
2018-03-28T01:48:34.100Z,99361.89
2018-03-28T01:51:01.804Z,99363.70
2018-03-28T01:53:29.635Z,99367.31
2018-03-28T01:55:57.496Z,99358.45
2018-03-28T01:58:25.363Z,99371.20
2018-03-28T02:00:53.073Z,99366.14
2018-03-28T02:03:20.995Z,99362.33
2018-03-28T02:05:48.827Z,99362.47
2018-03-28T02:08:16.624Z,99365.69
2018-03-28T02:10:44.499Z,99364.20
2018-03-28T02:13:12.260Z,99356.97
2018-03-28T02:15:40.137Z,99365.91
2018-03-28T02:18:07.887Z,99363.02
2018-03-28T02:20:35.857Z,99358.48
2018-03-28T02:23:03.567Z,99361.14
2018-03-28T02:25:31.385Z,99359.66
2018-03-28T02:27:59.152Z,99352.38
2018-03-28T02:30:27.017Z,99359.87
2018-03-28T02:32:54.732Z,99353.81
2018-03-28T02:35:22.546Z,99362.36
2018-03-28T02:37:50.310Z,99353.89
2018-03-28T02:40:18.078Z,99352.27
2018-03-28T02:42:45.833Z,99348.44
2018-03-28T02:45:13.705Z,99352.60
2018-03-28T02:47:41.431Z,99357.19
2018-03-28T02:50:09.227Z,99360.02
2018-03-28T02:52:36.938Z,99363.45
2018-03-28T02:55:04.764Z,99367.17
2018-03-28T02:57:32.527Z,99360.44
2018-03-28T03:00:00.363Z,99354.94
2018-03-28T03:02:28.110Z,99369.27
2018-03-28T03:04:55.826Z,99367.36
2018-03-28T03:07:23.539Z,99366.23
2018-03-28T03:09:51.249Z,99362.63
2018-03-28T03:12:18.971Z,99374.19
2018-03-28T03:14:46.778Z,99357.17
2018-03-28T03:17:14.482Z,99350.00
2018-03-28T03:19:42.303Z,99359.35
2018-03-28T03:22:10.071Z,99365.86
2018-03-28T03:24:37.941Z,99365.19
2018-03-28T03:27:05.704Z,99366.88
2018-03-28T03:29:33.466Z,99364.06
2018-03-28T03:32:01.230Z,99374.20
2018-03-28T03:34:28.942Z,99359.08
2018-03-28T03:36:56.771Z,99359.89
2018-03-28T03:39:24.631Z,99366.36
2018-03-28T03:41:52.341Z,99368.47
2018-03-28T03:44:20.117Z,99360.77
2018-03-28T03:46:47.918Z,99357.92
2018-03-28T03:49:15.741Z,99359.66
2018-03-28T03:51:43.549Z,99366.30
2018-03-28T03:54:11.418Z,99357.35
2018-03-28T03:56:39.163Z,99362.45
2018-03-28T03:59:07.008Z,99357.94
2018-03-28T04:01:34.812Z,99364.52
2018-03-28T04:04:02.576Z,99362.05
2018-03-28T04:06:30.543Z,99363.02
2018-03-28T04:08:58.411Z,99358.53
2018-03-28T04:11:26.213Z,99361.53
2018-03-28T04:13:53.936Z,99363.36
2018-03-28T04:16:21.651Z,99363.22
2018-03-28T04:18:49.476Z,99367.52
2018-03-28T04:21:17.281Z,99366.46
2018-03-28T04:23:45.097Z,99359.81
2018-03-28T04:26:12.865Z,99358.89
2018-03-28T04:28:40.733Z,99367.04
2018-03-28T04:31:08.606Z,99368.70
2018-03-28T04:33:36.260Z,99364.61
2018-03-28T04:36:04.130Z,99361.14
2018-03-28T04:38:31.895Z,99360.77
2018-03-28T04:40:59.758Z,99362.39
2018-03-28T04:43:27.479Z,99352.77
2018-03-28T04:45:55.289Z,99356.94
2018-03-28T04:48:23.052Z,99359.32
2018-03-28T04:50:50.783Z,99355.81
2018-03-28T04:53:18.580Z,99355.14
2018-03-28T04:55:46.477Z,99358.28
2018-03-28T04:58:14.222Z,99354.91
2018-03-28T05:00:42.056Z,99356.88
2018-03-28T05:03:09.842Z,99352.37
2018-03-28T05:05:37.709Z,99350.66
2018-03-28T05:08:05.419Z,99350.48
2018-03-28T05:10:33.237Z,99349.74
2018-03-28T05:13:01.008Z,99346.72
2018-03-28T05:15:28.817Z,99353.48
2018-03-28T05:17:56.633Z,99350.81
2018-03-28T05:20:24.398Z,99353.06
2018-03-28T05:22:52.116Z,99363.76
2018-03-28T05:25:19.837Z,99364.81
2018-03-28T05:27:47.480Z,99376.27
2018-03-28T05:30:15.251Z,99381.77
2018-03-28T05:32:42.918Z,99381.70
2018-03-28T05:35:10.723Z,99384.56
2018-03-28T05:37:38.571Z,99379.38
2018-03-28T05:40:06.410Z,99377.13
2018-03-28T05:42:34.073Z,99370.31
2018-03-28T05:45:01.838Z,99367.73
2018-03-28T05:47:29.499Z,99366.56
2018-03-28T05:49:57.267Z,99368.12
2018-03-28T05:52:24.986Z,99367.55
2018-03-28T05:54:52.697Z,99372.41
2018-03-28T05:57:20.421Z,99377.33
2018-03-28T05:59:48.122Z,99374.41
2018-03-28T06:02:15.882Z,99385.55
2018-03-28T06:04:43.646Z,99380.94
2018-03-28T06:07:11.366Z,99383.56
2018-03-28T06:09:39.126Z,99391.81
2018-03-28T06:12:06.938Z,99386.25
2018-03-28T06:14:34.806Z,99388.42
2018-03-28T06:17:02.570Z,99395.62
2018-03-28T06:19:30.231Z,99382.53
2018-03-28T06:21:58.006Z,99378.39
2018-03-28T06:24:25.708Z,99375.87
2018-03-28T06:26:53.528Z,99381.34
2018-03-28T06:29:21.291Z,99380.59
2018-03-28T06:31:49.044Z,99389.36
2018-03-28T06:34:16.802Z,99394.38
2018-03-28T06:36:44.536Z,99387.29
2018-03-28T06:39:12.349Z,99399.17
2018-03-28T06:41:40.111Z,99389.88
2018-03-28T06:44:07.978Z,99380.39
2018-03-28T06:46:35.844Z,99391.16
2018-03-28T06:49:03.605Z,99386.83
2018-03-28T06:51:31.372Z,99392.30
2018-03-28T06:53:59.138Z,99397.34
2018-03-28T06:56:27.005Z,99395.00
2018-03-28T06:58:54.742Z,99387.46
2018-03-28T07:01:22.553Z,99384.70
2018-03-28T07:03:50.195Z,99389.19
2018-03-28T07:06:17.961Z,99389.59
2018-03-28T07:08:45.651Z,99394.96
2018-03-28T07:11:13.443Z,99400.89
2018-03-28T07:13:41.254Z,99388.25
2018-03-28T07:16:09.017Z,99395.29
2018-03-28T07:18:36.736Z,99395.05
2018-03-28T07:21:04.649Z,99391.72
2018-03-28T07:23:32.381Z,99396.28
2018-03-28T07:26:00.178Z,99386.58
2018-03-28T07:28:27.841Z,99377.02
2018-03-28T07:30:55.552Z,99372.52
2018-03-28T07:33:23.257Z,99374.01
2018-03-28T07:35:51.025Z,99374.88
2018-03-28T07:38:18.749Z,99381.80
2018-03-28T07:40:46.560Z,99384.63
2018-03-28T07:43:14.277Z,99384.59
2018-03-28T07:45:41.988Z,99384.29
2018-03-28T07:48:09.709Z,99383.44
2018-03-28T07:50:37.414Z,99379.81
2018-03-28T07:53:05.176Z,99376.73
2018-03-28T07:55:32.942Z,99379.16
2018-03-28T07:58:00.710Z,99384.87
2018-03-28T08:00:28.573Z,99384.72
2018-03-28T08:02:56.337Z,99383.58
2018-03-28T08:05:24.100Z,99378.64
2018-03-28T08:07:51.867Z,99376.50
2018-03-28T08:10:19.533Z,99379.25
2018-03-28T08:12:47.191Z,99383.05
2018-03-28T08:15:15.059Z,99392.08
2018-03-28T08:17:42.783Z,99393.66
2018-03-28T08:20:10.524Z,99400.09
2018-03-28T08:22:38.250Z,99402.04
2018-03-28T08:25:06.014Z,99397.72
2018-03-28T08:27:33.732Z,99401.70
2018-03-28T08:30:01.542Z,99394.14
2018-03-28T08:32:29.202Z,99395.99
2018-03-28T08:34:56.864Z,99385.00
2018-03-28T08:37:24.588Z,99387.28
2018-03-28T08:39:52.395Z,99384.75
2018-03-28T08:42:20.051Z,99379.95
2018-03-28T08:44:47.862Z,99386.98
2018-03-28T08:47:15.589Z,99390.80
2018-03-28T08:49:43.299Z,99382.97
2018-03-28T08:52:11.124Z,99385.79
2018-03-28T08:54:38.778Z,99388.89
2018-03-28T08:57:06.652Z,99377.91
2018-03-28T08:59:34.304Z,99376.89
2018-03-28T09:02:02.069Z,99368.48
2018-03-28T09:04:29.791Z,99377.08
2018-03-28T09:06:57.699Z,99374.55
2018-03-28T09:09:25.402Z,99367.22
2018-03-28T09:11:53.230Z,99371.27
2018-03-28T09:14:20.993Z,99373.18
2018-03-28T09:16:48.930Z,99370.76
2018-03-28T09:19:16.679Z,99365.03
2018-03-28T09:21:44.491Z,99368.63
2018-03-28T09:24:12.200Z,99372.95
2018-03-28T09:26:40.020Z,99375.53
2018-03-28T09:29:07.785Z,99376.37
2018-03-28T09:31:35.550Z,99379.63
2018-03-28T09:34:03.314Z,99370.02
2018-03-28T09:36:30.977Z,99382.18
2018-03-28T09:38:58.636Z,99371.08
2018-03-28T09:41:26.505Z,99369.02
2018-03-28T09:43:54.209Z,99364.45
2018-03-28T09:46:22.042Z,99368.47
2018-03-28T09:48:49.803Z,99349.71
2018-03-28T09:51:17.562Z,99356.75
2018-03-28T09:53:45.336Z,99353.63
2018-03-28T09:56:13.155Z,99349.06
2018-03-28T09:58:40.855Z,99352.89
2018-03-28T10:01:08.708Z,99352.34
2018-03-28T10:03:52.051Z,99350.55
2018-03-28T10:06:19.815Z,99348.61
2018-03-28T10:08:47.588Z,99344.73
2018-03-28T10:11:15.344Z,99335.91
2018-03-28T10:13:43.108Z,99330.55
2018-03-28T10:16:10.821Z,99337.41
2018-03-28T10:18:38.636Z,99340.94
2018-03-28T10:21:06.465Z,99337.34
2018-03-28T10:23:34.218Z,99332.27
2018-03-28T10:26:02.041Z,99328.94
2018-03-28T10:28:29.695Z,99326.88
2018-03-28T10:30:57.459Z,99326.34
2018-03-28T10:33:25.184Z,99317.09
2018-03-28T10:35:52.885Z,99309.16
2018-03-28T10:38:20.550Z,99306.74
2018-03-28T10:40:48.285Z,99302.66
2018-03-28T10:43:16.034Z,99299.76
2018-03-28T10:45:43.841Z,99303.30
2018-03-28T10:48:11.616Z,99317.22
2018-03-28T10:50:39.268Z,99303.83
2018-03-28T10:53:07.136Z,99299.48
2018-03-28T10:55:34.901Z,99285.15
2018-03-28T10:58:02.669Z,99286.49
2018-03-28T11:00:30.319Z,99280.64
2018-03-28T11:02:58.090Z,99275.31
2018-03-28T11:05:25.859Z,99275.73
2018-03-28T11:07:53.721Z,99271.27
2018-03-28T11:10:21.484Z,99264.34
2018-03-28T11:12:49.202Z,99263.73
2018-03-28T11:15:17.014Z,99264.19
2018-03-28T11:17:44.780Z,99257.38
2018-03-28T11:20:12.503Z,99249.02
2018-03-28T11:22:40.308Z,99244.98
2018-03-28T11:25:08.031Z,99247.16
2018-03-28T11:27:35.837Z,99236.11
2018-03-28T11:30:03.602Z,99225.91
2018-03-28T11:32:31.315Z,99220.66
2018-03-28T11:34:59.027Z,99213.33
2018-03-28T11:37:26.797Z,99204.06
2018-03-28T11:39:54.558Z,99198.22
2018-03-28T11:42:22.373Z,99198.61
2018-03-28T11:44:50.188Z,99197.70
2018-03-28T11:47:18.030Z,99189.98
2018-03-28T11:49:45.820Z,99183.00
2018-03-28T11:52:13.748Z,99170.56
2018-03-28T11:54:41.431Z,99168.81
2018-03-28T11:57:09.111Z,99164.89
2018-03-28T11:59:36.884Z,99168.41
2018-03-28T12:02:04.705Z,99158.58
2018-03-28T12:04:32.408Z,99150.56
2018-03-28T12:07:00.276Z,99151.66
2018-03-28T12:09:28.036Z,99146.17
2018-03-28T12:11:55.798Z,99141.67
2018-03-28T12:14:23.563Z,99140.53
2018-03-28T12:16:51.375Z,99130.67
2018-03-28T12:19:19.196Z,99128.23
2018-03-28T12:21:46.964Z,99128.91
2018-03-28T12:24:14.728Z,99122.20
2018-03-28T12:26:42.592Z,99125.30
2018-03-28T12:29:10.253Z,99119.50
2018-03-28T12:31:38.077Z,99114.87
2018-03-28T12:34:06.709Z,99105.95
2018-03-28T12:36:34.469Z,99106.66
2018-03-28T12:39:02.233Z,99105.53
2018-03-28T12:41:29.997Z,99098.66
2018-03-28T12:43:57.762Z,99097.59
2018-03-28T12:46:25.629Z,99089.77
2018-03-28T12:48:53.397Z,99088.91
2018-03-28T12:51:21.159Z,99084.91
2018-03-28T12:53:48.817Z,99076.23
2018-03-28T12:56:16.793Z,99076.59
2018-03-28T12:58:44.657Z,99065.34
2018-03-28T13:01:12.528Z,99058.03
2018-03-28T13:03:40.290Z,99053.97
2018-03-28T13:06:07.948Z,99051.16
2018-03-28T13:08:35.718Z,99045.94
2018-03-28T13:11:03.609Z,99035.64
2018-03-28T13:13:31.446Z,99034.53
2018-03-28T13:15:59.320Z,99028.20
2018-03-28T13:18:27.180Z,99018.39
2018-03-28T13:20:54.891Z,99012.36
2018-03-28T13:23:22.813Z,99007.93
2018-03-28T13:25:50.515Z,99002.20
2018-03-28T13:28:18.340Z,99001.50
2018-03-28T13:30:45.998Z,98992.06
2018-03-28T13:33:13.665Z,98982.30
2018-03-28T13:35:41.318Z,98976.52
2018-03-28T13:38:09.093Z,98967.56
2018-03-28T13:40:36.957Z,98957.39
2018-03-28T13:43:04.622Z,98954.50
2018-03-28T13:45:32.384Z,98947.53
2018-03-28T13:48:00.221Z,98937.37
2018-03-28T13:50:27.913Z,98925.81
2018-03-28T13:52:55.874Z,98917.17
2018-03-28T13:55:23.543Z,98907.47
2018-03-28T13:57:51.419Z,98902.30
2018-03-28T14:00:19.076Z,98892.50
2018-03-28T14:02:46.838Z,98890.23
2018-03-28T14:05:14.603Z,98888.99
2018-03-28T14:07:42.470Z,98884.73
2018-03-28T14:10:10.189Z,98880.84
2018-03-28T14:12:38.008Z,98885.91
2018-03-28T14:15:05.766Z,98875.59
2018-03-28T14:17:33.526Z,98873.16
2018-03-28T14:20:01.231Z,98869.88
2018-03-28T14:22:29.047Z,98863.58
2018-03-28T14:24:56.886Z,98850.14
2018-03-28T14:27:24.790Z,98854.91
2018-03-28T14:29:52.620Z,98846.09
2018-03-28T14:32:20.420Z,98862.95
2018-03-28T14:34:48.133Z,98854.28
2018-03-28T14:37:15.944Z,98840.84
2018-03-28T14:39:43.665Z,98844.53
2018-03-28T14:42:11.581Z,98842.86
2018-03-28T14:44:39.294Z,98833.56
2018-03-28T14:47:07.109Z,98839.28
2018-03-28T14:49:34.853Z,98844.13
2018-03-28T14:52:02.848Z,98840.27
2018-03-28T14:54:30.612Z,98837.27
2018-03-28T14:56:58.325Z,98833.64
2018-03-28T14:59:26.142Z,98817.53
2018-03-28T15:01:54.002Z,98809.28
2018-03-28T15:04:21.725Z,98802.46
2018-03-28T15:06:49.533Z,98794.39
2018-03-28T15:09:17.302Z,98786.67
2018-03-28T15:11:45.246Z,98784.02
2018-03-28T15:14:13.037Z,98788.08
2018-03-28T15:16:40.812Z,98772.14
2018-03-28T15:19:08.660Z,98766.16
2018-03-28T15:21:36.365Z,98767.47
2018-03-28T15:24:04.185Z,98756.02
2018-03-28T15:26:31.855Z,98749.03
2018-03-28T15:28:59.627Z,98734.57
2018-03-28T15:31:27.488Z,98732.77
2018-03-28T15:33:55.194Z,98732.75
2018-03-28T15:36:22.914Z,98729.25
2018-03-28T15:38:50.776Z,98723.74
2018-03-28T15:41:18.496Z,98711.04
2018-03-28T15:43:46.307Z,98712.23
2018-03-28T15:46:14.077Z,98706.14
2018-03-28T15:48:41.836Z,98697.22
2018-03-28T15:51:09.564Z,98694.88
2018-03-28T15:53:37.428Z,98694.33
2018-03-28T15:56:05.169Z,98693.13
2018-03-28T15:58:32.960Z,98683.92
2018-03-28T16:01:00.763Z,98682.87
2018-03-28T16:03:28.525Z,98680.56
2018-03-28T16:05:56.185Z,98676.80
2018-03-28T16:08:24.052Z,98667.83
2018-03-28T16:10:51.817Z,98669.13
2018-03-28T16:13:19.535Z,98672.69
2018-03-28T16:15:47.345Z,98663.20
2018-03-28T16:18:15.110Z,98653.59
2018-03-28T16:20:42.777Z,98659.66
2018-03-28T16:23:10.436Z,98646.53
2018-03-28T16:25:38.142Z,98643.61
2018-03-28T16:28:05.955Z,98638.31
2018-03-28T16:30:33.616Z,98636.26
2018-03-28T16:33:01.389Z,98639.30
2018-03-28T16:35:29.115Z,98623.00
2018-03-28T16:37:57.020Z,98627.75
2018-03-28T16:40:24.748Z,98628.22
2018-03-28T16:42:52.507Z,98629.84
2018-03-28T16:45:20.417Z,98624.36
2018-03-28T16:47:48.244Z,98615.11
2018-03-28T16:50:15.951Z,98611.67
2018-03-28T16:52:43.813Z,98612.83
2018-03-28T16:55:11.475Z,98615.59
2018-03-28T16:57:39.343Z,98608.98
2018-03-28T17:00:07.208Z,98609.55
2018-03-28T17:02:34.922Z,98605.97
2018-03-28T17:05:02.839Z,98601.30
2018-03-28T17:07:30.649Z,98609.08
2018-03-28T17:09:58.471Z,98597.86
2018-03-28T17:12:26.234Z,98596.55
2018-03-28T17:14:53.998Z,98601.61
2018-03-28T17:17:21.763Z,98600.00
2018-03-28T17:19:49.604Z,98607.58
2018-03-28T17:22:17.358Z,98599.33
2018-03-28T17:24:45.114Z,98598.98
2018-03-28T17:27:12.923Z,98588.16
2018-03-28T17:29:40.745Z,98587.81
2018-03-28T17:32:08.453Z,98576.00
2018-03-28T17:34:36.181Z,98577.63
2018-03-28T17:37:03.926Z,98580.08
2018-03-28T17:39:31.745Z,98573.88
2018-03-28T17:41:59.510Z,98578.02
2018-03-28T17:44:27.386Z,98579.50
2018-03-28T17:46:55.244Z,98575.47
2018-03-28T17:49:23.109Z,98577.45
2018-03-28T17:51:50.820Z,98571.99
2018-03-28T17:54:18.741Z,98567.20
2018-03-28T17:56:46.461Z,98574.63
2018-03-28T17:59:14.220Z,98582.67
2018-03-28T18:01:41.933Z,98596.97
2018-03-28T18:04:09.752Z,98590.33
2018-03-28T18:06:37.563Z,98597.51
2018-03-28T18:09:06.250Z,98598.78
2018-03-28T18:11:33.977Z,98608.34
2018-03-28T18:14:01.719Z,98597.27
2018-03-28T18:16:29.542Z,98601.09
2018-03-28T18:18:57.409Z,98598.94
2018-03-28T18:21:25.283Z,98610.62
2018-03-28T18:23:53.109Z,98623.54
2018-03-28T18:26:20.908Z,98617.25
2018-03-28T18:28:48.671Z,98615.44
2018-03-28T18:31:16.540Z,98615.28
2018-03-28T18:33:44.302Z,98610.20
2018-03-28T18:36:12.117Z,98612.87
2018-03-28T18:38:39.934Z,98608.56
2018-03-28T18:41:07.753Z,98609.70
2018-03-28T18:43:35.462Z,98615.78
2018-03-28T18:46:03.283Z,98612.95
2018-03-28T18:48:31.099Z,98621.69
2018-03-28T18:50:58.962Z,98615.81
2018-03-28T18:53:26.837Z,98624.46
2018-03-28T18:55:54.697Z,98620.55
2018-03-28T18:58:22.459Z,98620.63
2018-03-28T19:00:50.227Z,98617.80
2018-03-28T19:03:17.949Z,98628.66
2018-03-28T19:05:45.715Z,98638.13
2018-03-28T19:08:13.460Z,98641.91
2018-03-28T19:10:41.281Z,98644.64
2018-03-28T19:13:09.061Z,98643.66
2018-03-28T19:15:36.918Z,98654.80
2018-03-28T19:18:04.624Z,98649.70
2018-03-28T19:20:32.441Z,98654.89
2018-03-28T19:23:00.157Z,98660.81
2018-03-28T19:25:27.954Z,98676.44
2018-03-28T19:27:55.689Z,98681.23
2018-03-28T19:30:23.498Z,98689.69
2018-03-28T19:32:51.366Z,98688.08
2018-03-28T19:35:19.133Z,98698.05
2018-03-28T19:37:46.895Z,98698.77
2018-03-28T19:40:14.659Z,98699.67
2018-03-28T19:42:42.526Z,98717.71
2018-03-28T19:45:10.256Z,98708.54
2018-03-28T19:47:37.997Z,98717.67
2018-03-28T19:50:05.717Z,98727.65
2018-03-28T19:52:33.480Z,98734.71
2018-03-28T19:55:01.347Z,98733.63
2018-03-28T19:57:29.215Z,98750.32
2018-03-28T19:59:56.885Z,98741.53
2018-03-28T20:02:24.723Z,98748.20
2018-03-28T20:04:52.461Z,98756.34
2018-03-28T20:07:20.275Z,98753.20
2018-03-28T20:09:48.097Z,98764.75
2018-03-28T20:12:15.904Z,98762.34
2018-03-28T20:14:43.733Z,98755.36
2018-03-28T20:17:11.434Z,98769.38
2018-03-28T20:19:39.259Z,98757.17
2018-03-28T20:22:07.065Z,98775.44
2018-03-28T20:24:34.767Z,98767.05
2018-03-28T20:27:02.592Z,98763.32
2018-03-28T20:29:30.357Z,98751.17
2018-03-28T20:31:58.121Z,98771.53
2018-03-28T20:34:25.783Z,98777.59
2018-03-28T20:36:53.500Z,98766.39
2018-03-28T20:39:21.312Z,98784.89
2018-03-28T20:41:49.032Z,98779.91
2018-03-28T20:44:16.841Z,98779.00
2018-03-28T20:46:44.508Z,98790.56
2018-03-28T20:49:12.377Z,98792.55
2018-03-28T20:51:40.035Z,98809.11
2018-03-28T20:54:07.866Z,98816.70
2018-03-28T20:56:35.612Z,98834.61
2018-03-28T20:59:03.325Z,98851.53
2018-03-28T21:01:31.070Z,98855.81
2018-03-28T21:03:58.805Z,98868.44
2018-03-28T21:06:26.569Z,98884.61
2018-03-28T21:08:54.383Z,98881.68
2018-03-28T21:11:22.250Z,98887.07
2018-03-28T21:13:49.913Z,98898.64
2018-03-28T21:16:17.778Z,98900.72
2018-03-28T21:18:45.446Z,98898.86
2018-03-28T21:21:13.108Z,98911.13
2018-03-28T21:23:40.766Z,98909.91
2018-03-28T21:26:08.632Z,98909.33
2018-03-28T21:28:36.330Z,98919.60
2018-03-28T21:31:04.168Z,98930.27
2018-03-28T21:33:31.931Z,98941.47
2018-03-28T21:35:59.640Z,98942.59
2018-03-28T21:38:27.460Z,98950.75
2018-03-28T21:40:55.320Z,98959.23
2018-03-28T21:43:23.112Z,98984.55
2018-03-28T21:45:50.849Z,98993.95
2018-03-28T21:48:18.614Z,99000.86
2018-03-28T21:50:46.378Z,99006.91
2018-03-28T21:53:14.135Z,99009.62
2018-03-28T21:55:41.908Z,99003.23
2018-03-28T21:58:09.774Z,99007.63
2018-03-28T22:00:37.602Z,99015.41
2018-03-28T22:03:05.345Z,99019.03
2018-03-28T22:05:33.054Z,99016.80
2018-03-28T22:08:00.832Z,99039.61
2018-03-28T22:10:28.494Z,99056.51
2018-03-28T22:12:56.367Z,99066.47
2018-03-28T22:15:24.124Z,99060.98
2018-03-28T22:17:51.889Z,99065.19
2018-03-28T22:20:19.654Z,99068.83
2018-03-28T22:22:47.520Z,99065.53
2018-03-28T22:25:15.242Z,99047.55
2018-03-28T22:27:43.050Z,99064.95
2018-03-28T22:30:10.716Z,99065.52
2018-03-28T22:32:38.475Z,99075.14
2018-03-28T22:35:06.184Z,99078.14
2018-03-28T22:37:34.004Z,99087.76
2018-03-28T22:40:01.776Z,99087.92
2018-03-28T22:42:29.541Z,99097.28
2018-03-28T22:44:57.195Z,99101.33
2018-03-28T22:47:24.913Z,99098.92
2018-03-28T22:49:52.725Z,99094.93
2018-03-28T22:52:20.387Z,99097.41
2018-03-28T22:54:48.057Z,99107.04
2018-03-28T22:57:15.755Z,99117.14
2018-03-28T22:59:43.577Z,99118.84
2018-03-28T23:02:11.347Z,99140.45
2018-03-28T23:04:39.106Z,99125.73
2018-03-28T23:07:06.772Z,99150.27
2018-03-28T23:09:34.584Z,99153.45
2018-03-28T23:12:02.195Z,99154.45
2018-03-28T23:14:29.959Z,99144.84
2018-03-28T23:16:57.725Z,99164.56
2018-03-28T23:19:25.589Z,99171.41
2018-03-28T23:21:53.239Z,99168.46
2018-03-28T23:24:20.914Z,99173.14
2018-03-28T23:26:48.631Z,99186.15
2018-03-28T23:29:16.340Z,99199.88
2018-03-28T23:31:44.057Z,99197.09
2018-03-28T23:34:11.873Z,99199.81
2018-03-28T23:36:39.519Z,99217.23
2018-03-28T23:39:07.296Z,99218.01
2018-03-28T23:41:35.060Z,99209.56
2018-03-28T23:44:02.770Z,99218.84
2018-03-28T23:46:30.588Z,99233.25
2018-03-28T23:48:58.353Z,99232.29
2018-03-28T23:51:26.003Z,99231.19
2018-03-28T23:53:53.677Z,99236.19
2018-03-28T23:56:21.328Z,99238.81
2018-03-28T23:58:49.003Z,99232.03
